Adel, Iowa
Current Conditions -  °F | °C
As of 6:55 AM on Wednesday 22 Oct 2014 (Local Time) from KPRO Reporting Station
Scattered Clouds Scattered Clouds  
Wind Chill: 39°   Ceiling: Unl
Heat Index: 44°   Visibility: 10mi
Dew Point: 40°   Wind: 8mph
Humidity: 86%   Direction: 140°SE
Pressure: 30.2"   Gusts: NA
Location:  41.61°N, 94.02°W
Report Text: KPRO 221155Z AUTO 14007KT 10SM SCT050 07/04 A3020 RMK AO2 T00660044 10075 20065
Loading
Personal Weather Stations






























Interactive Weather Map New forecast layout! Learn more

10-Day Weather Forecast

Advertisements
Track Severe Weather on mobile